sensor_id;sensor_type;location;lat;lon;timestamp;P1;durP1;ratioP1;P2;durP2;ratioP2
12124;SDS011;6126;57.908;16.490;2023-04-24T00:00:27;4.55;;;3.90;;
12124;SDS011;6126;57.908;16.490;2023-04-24T00:02:53;4.38;;;3.97;;
12124;SDS011;6126;57.908;16.490;2023-04-24T00:05:22;6.85;;;3.70;;
12124;SDS011;6126;57.908;16.490;2023-04-24T00:07:49;6.03;;;4.18;;
12124;SDS011;6126;57.908;16.490;2023-04-24T00:10:19;4.32;;;3.83;;
12124;SDS011;6126;57.908;16.490;2023-04-24T00:12:45;5.13;;;4.63;;
12124;SDS011;6126;57.908;16.490;2023-04-24T00:15:11;5.85;;;4.07;;
12124;SDS011;6126;57.908;16.490;2023-04-24T00:17:37;5.50;;;4.07;;
12124;SDS011;6126;57.908;16.490;2023-04-24T00:20:04;5.70;;;4.43;;
12124;SDS011;6126;57.908;16.490;2023-04-24T00:22:31;6.32;;;4.50;;
12124;SDS011;6126;57.908;16.490;2023-04-24T00:24:58;5.10;;;4.60;;
12124;SDS011;6126;57.908;16.490;2023-04-24T00:27:24;5.07;;;4.57;;
12124;SDS011;6126;57.908;16.490;2023-04-24T00:29:50;4.90;;;4.40;;
12124;SDS011;6126;57.908;16.490;2023-04-24T00:32:16;4.65;;;3.97;;
12124;SDS011;6126;57.908;16.490;2023-04-24T00:34:42;7.35;;;4.35;;
12124;SDS011;6126;57.908;16.490;2023-04-24T00:37:08;4.35;;;3.83;;
12124;SDS011;6126;57.908;16.490;2023-04-24T00:39:34;5.03;;;4.53;;
12124;SDS011;6126;57.908;16.490;2023-04-24T00:42:00;7.60;;;4.53;;
12124;SDS011;6126;57.908;16.490;2023-04-24T00:44:26;5.93;;;4.63;;
12124;SDS011;6126;57.908;16.490;2023-04-24T00:46:53;4.68;;;4.18;;
12124;SDS011;6126;57.908;16.490;2023-04-24T00:49:21;4.70;;;4.13;;
12124;SDS011;6126;57.908;16.490;2023-04-24T00:51:47;4.43;;;4.03;;
12124;SDS011;6126;57.908;16.490;2023-04-24T00:54:14;7.85;;;4.85;;
12124;SDS011;6126;57.908;16.490;2023-04-24T00:56:41;6.13;;;4.43;;
12124;SDS011;6126;57.908;16.490;2023-04-24T00:59:08;8.68;;;5.00;;
12124;SDS011;6126;57.908;16.490;2023-04-24T01:01:35;5.80;;;4.43;;
12124;SDS011;6126;57.908;16.490;2023-04-24T01:04:01;4.68;;;3.88;;
12124;SDS011;6126;57.908;16.490;2023-04-24T01:06:28;5.85;;;4.95;;
12124;SDS011;6126;57.908;16.490;2023-04-24T01:08:56;6.30;;;4.97;;
12124;SDS011;6126;57.908;16.490;2023-04-24T01:11:25;5.90;;;4.65;;
12124;SDS011;6126;57.908;16.490;2023-04-24T01:13:51;6.40;;;4.93;;
12124;SDS011;6126;57.908;16.490;2023-04-24T01:16:18;6.25;;;4.88;;
12124;SDS011;6126;57.908;16.490;2023-04-24T01:18:46;6.10;;;4.72;;
12124;SDS011;6126;57.908;16.490;2023-04-24T01:21:15;4.97;;;4.45;;
12124;SDS011;6126;57.908;16.490;2023-04-24T01:23:43;7.25;;;5.25;;
12124;SDS011;6126;57.908;16.490;2023-04-24T01:26:11;6.28;;;4.88;;
12124;SDS011;6126;57.908;16.490;2023-04-24T01:28:40;8.27;;;4.95;;
12124;SDS011;6126;57.908;16.490;2023-04-24T01:31:06;6.72;;;4.72;;
12124;SDS011;6126;57.908;16.490;2023-04-24T01:33:32;5.80;;;4.93;;
12124;SDS011;6126;57.908;16.490;2023-04-24T01:35:58;6.32;;;5.35;;
12124;SDS011;6126;57.908;16.490;2023-04-24T01:38:25;5.13;;;4.63;;
12124;SDS011;6126;57.908;16.490;2023-04-24T01:40:52;5.53;;;4.45;;
12124;SDS011;6126;57.908;16.490;2023-04-24T01:43:18;6.95;;;4.43;;
12124;SDS011;6126;57.908;16.490;2023-04-24T01:45:44;6.30;;;5.28;;
12124;SDS011;6126;57.908;16.490;2023-04-24T01:48:11;5.95;;;5.05;;
12124;SDS011;6126;57.908;16.490;2023-04-24T01:50:38;5.95;;;5.15;;
12124;SDS011;6126;57.908;16.490;2023-04-24T01:53:04;6.13;;;4.38;;
12124;SDS011;6126;57.908;16.490;2023-04-24T01:55:30;6.30;;;4.78;;
12124;SDS011;6126;57.908;16.490;2023-04-24T01:57:56;5.82;;;4.85;;
12124;SDS011;6126;57.908;16.490;2023-04-24T02:00:24;7.78;;;5.25;;
12124;SDS011;6126;57.908;16.490;2023-04-24T02:02:50;6.72;;;5.88;;
12124;SDS011;6126;57.908;16.490;2023-04-24T02:05:17;7.72;;;5.57;;
12124;SDS011;6126;57.908;16.490;2023-04-24T02:07:43;5.82;;;4.90;;
12124;SDS011;6126;57.908;16.490;2023-04-24T02:10:09;8.35;;;5.32;;
12124;SDS011;6126;57.908;16.490;2023-04-24T02:12:35;5.35;;;4.68;;
12124;SDS011;6126;57.908;16.490;2023-04-24T02:15:02;7.43;;;5.57;;
12124;SDS011;6126;57.908;16.490;2023-04-24T02:17:28;7.85;;;5.38;;
12124;SDS011;6126;57.908;16.490;2023-04-24T02:19:54;5.05;;;4.53;;
12124;SDS011;6126;57.908;16.490;2023-04-24T02:22:20;8.23;;;5.70;;
12124;SDS011;6126;57.908;16.490;2023-04-24T02:24:46;8.65;;;6.18;;
12124;SDS011;6126;57.908;16.490;2023-04-24T02:27:12;8.32;;;5.18;;
12124;SDS011;6126;57.908;16.490;2023-04-24T02:29:38;7.20;;;4.97;;
12124;SDS011;6126;57.908;16.490;2023-04-24T02:32:03;6.45;;;5.07;;
12124;SDS011;6126;57.908;16.490;2023-04-24T02:34:29;13.05;;;5.45;;
12124;SDS011;6126;57.908;16.490;2023-04-24T02:36:55;5.80;;;4.60;;
12124;SDS011;6126;57.908;16.490;2023-04-24T02:39:21;6.97;;;5.20;;
12124;SDS011;6126;57.908;16.490;2023-04-24T02:41:47;5.57;;;4.65;;
12124;SDS011;6126;57.908;16.490;2023-04-24T02:44:13;7.13;;;5.25;;
12124;SDS011;6126;57.908;16.490;2023-04-24T02:46:39;7.40;;;6.07;;
12124;SDS011;6126;57.908;16.490;2023-04-24T02:49:06;6.72;;;5.80;;
12124;SDS011;6126;57.908;16.490;2023-04-24T02:51:32;8.20;;;6.38;;
12124;SDS011;6126;57.908;16.490;2023-04-24T02:53:58;6.72;;;5.65;;
12124;SDS011;6126;57.908;16.490;2023-04-24T02:56:24;6.90;;;5.63;;
12124;SDS011;6126;57.908;16.490;2023-04-24T02:58:50;8.85;;;6.95;;
12124;SDS011;6126;57.908;16.490;2023-04-24T03:01:16;10.00;;;7.32;;
12124;SDS011;6126;57.908;16.490;2023-04-24T03:03:42;9.90;;;7.00;;
12124;SDS011;6126;57.908;16.490;2023-04-24T03:06:09;10.23;;;7.22;;
12124;SDS011;6126;57.908;16.490;2023-04-24T03:08:35;9.05;;;7.22;;
12124;SDS011;6126;57.908;16.490;2023-04-24T03:11:02;9.95;;;7.28;;
12124;SDS011;6126;57.908;16.490;2023-04-24T03:13:28;10.63;;;7.95;;
12124;SDS011;6126;57.908;16.490;2023-04-24T03:15:54;9.98;;;8.15;;
12124;SDS011;6126;57.908;16.490;2023-04-24T03:18:20;12.98;;;8.30;;
12124;SDS011;6126;57.908;16.490;2023-04-24T03:20:46;10.07;;;7.60;;
12124;SDS011;6126;57.908;16.490;2023-04-24T03:23:12;10.13;;;8.20;;
12124;SDS011;6126;57.908;16.490;2023-04-24T03:25:38;12.93;;;7.63;;
12124;SDS011;6126;57.908;16.490;2023-04-24T03:28:04;11.07;;;7.95;;
12124;SDS011;6126;57.908;16.490;2023-04-24T03:30:30;10.88;;;7.88;;
12124;SDS011;6126;57.908;16.490;2023-04-24T03:32:56;10.63;;;8.05;;
12124;SDS011;6126;57.908;16.490;2023-04-24T03:35:22;11.43;;;8.35;;
12124;SDS011;6126;57.908;16.490;2023-04-24T03:37:48;11.35;;;8.15;;
12124;SDS011;6126;57.908;16.490;2023-04-24T03:40:14;11.13;;;8.55;;
12124;SDS011;6126;57.908;16.490;2023-04-24T03:42:40;11.15;;;8.35;;
12124;SDS011;6126;57.908;16.490;2023-04-24T03:45:06;11.90;;;8.93;;
12124;SDS011;6126;57.908;16.490;2023-04-24T03:47:33;14.95;;;8.63;;
12124;SDS011;6126;57.908;16.490;2023-04-24T03:49:59;11.90;;;8.18;;
12124;SDS011;6126;57.908;16.490;2023-04-24T03:52:25;12.00;;;8.55;;
12124;SDS011;6126;57.908;16.490;2023-04-24T03:54:51;11.18;;;8.15;;
12124;SDS011;6126;57.908;16.490;2023-04-24T03:57:16;9.80;;;8.02;;
12124;SDS011;6126;57.908;16.490;2023-04-24T03:59:42;11.68;;;8.82;;
12124;SDS011;6126;57.908;16.490;2023-04-24T04:02:08;12.68;;;9.35;;
12124;SDS011;6126;57.908;16.490;2023-04-24T04:04:34;12.32;;;8.88;;
12124;SDS011;6126;57.908;16.490;2023-04-24T04:07:00;12.40;;;9.38;;
12124;SDS011;6126;57.908;16.490;2023-04-24T04:09:27;11.85;;;9.48;;
12124;SDS011;6126;57.908;16.490;2023-04-24T04:11:54;13.30;;;9.48;;
12124;SDS011;6126;57.908;16.490;2023-04-24T04:14:20;12.18;;;8.52;;
12124;SDS011;6126;57.908;16.490;2023-04-24T04:16:47;12.73;;;9.10;;
12124;SDS011;6126;57.908;16.490;2023-04-24T04:19:14;14.23;;;8.98;;
12124;SDS011;6126;57.908;16.490;2023-04-24T04:21:39;11.60;;;8.52;;
12124;SDS011;6126;57.908;16.490;2023-04-24T04:24:05;14.70;;;9.43;;
12124;SDS011;6126;57.908;16.490;2023-04-24T04:26:32;15.15;;;10.25;;
12124;SDS011;6126;57.908;16.490;2023-04-24T04:28:58;13.75;;;9.38;;
12124;SDS011;6126;57.908;16.490;2023-04-24T04:31:25;12.70;;;9.30;;
12124;SDS011;6126;57.908;16.490;2023-04-24T04:33:51;13.48;;;9.13;;
12124;SDS011;6126;57.908;16.490;2023-04-24T04:36:17;14.25;;;9.90;;
12124;SDS011;6126;57.908;16.490;2023-04-24T04:38:43;16.15;;;10.18;;
12124;SDS011;6126;57.908;16.490;2023-04-24T04:41:09;15.50;;;10.35;;
12124;SDS011;6126;57.908;16.490;2023-04-24T04:43:35;14.93;;;9.38;;
12124;SDS011;6126;57.908;16.490;2023-04-24T04:46:03;14.05;;;9.77;;
12124;SDS011;6126;57.908;16.490;2023-04-24T04:48:29;14.68;;;10.15;;
12124;SDS011;6126;57.908;16.490;2023-04-24T04:50:56;15.07;;;10.18;;
12124;SDS011;6126;57.908;16.490;2023-04-24T04:53:23;15.25;;;9.65;;
12124;SDS011;6126;57.908;16.490;2023-04-24T04:55:49;13.80;;;9.63;;
12124;SDS011;6126;57.908;16.490;2023-04-24T04:58:15;15.05;;;10.75;;
12124;SDS011;6126;57.908;16.490;2023-04-24T05:00:41;15.77;;;11.32;;
12124;SDS011;6126;57.908;16.490;2023-04-24T05:03:07;14.23;;;10.00;;
12124;SDS011;6126;57.908;16.490;2023-04-24T05:05:33;14.05;;;10.75;;
12124;SDS011;6126;57.908;16.490;2023-04-24T05:07:59;14.55;;;10.30;;
12124;SDS011;6126;57.908;16.490;2023-04-24T05:10:25;13.63;;;9.52;;
12124;SDS011;6126;57.908;16.490;2023-04-24T05:12:51;15.73;;;11.13;;
12124;SDS011;6126;57.908;16.490;2023-04-24T05:15:16;13.00;;;9.90;;
12124;SDS011;6126;57.908;16.490;2023-04-24T05:17:42;16.42;;;11.23;;
12124;SDS011;6126;57.908;16.490;2023-04-24T05:20:08;15.65;;;10.85;;
12124;SDS011;6126;57.908;16.490;2023-04-24T05:22:34;15.45;;;11.23;;
12124;SDS011;6126;57.908;16.490;2023-04-24T05:25:01;14.77;;;10.27;;
12124;SDS011;6126;57.908;16.490;2023-04-24T05:27:27;15.73;;;11.52;;
12124;SDS011;6126;57.908;16.490;2023-04-24T05:29:53;15.07;;;10.95;;
12124;SDS011;6126;57.908;16.490;2023-04-24T05:32:19;13.70;;;9.40;;
12124;SDS011;6126;57.908;16.490;2023-04-24T05:34:45;14.07;;;10.02;;
12124;SDS011;6126;57.908;16.490;2023-04-24T05:37:11;15.75;;;11.20;;
12124;SDS011;6126;57.908;16.490;2023-04-24T05:39:38;14.80;;;10.23;;
12124;SDS011;6126;57.908;16.490;2023-04-24T05:42:04;15.45;;;10.52;;
12124;SDS011;6126;57.908;16.490;2023-04-24T05:44:30;14.75;;;10.75;;
12124;SDS011;6126;57.908;16.490;2023-04-24T05:46:56;16.08;;;11.52;;
12124;SDS011;6126;57.908;16.490;2023-04-24T05:49:22;15.15;;;10.85;;
12124;SDS011;6126;57.908;16.490;2023-04-24T05:51:48;13.88;;;10.63;;
12124;SDS011;6126;57.908;16.490;2023-04-24T05:54:14;14.57;;;10.98;;
12124;SDS011;6126;57.908;16.490;2023-04-24T05:56:40;14.00;;;10.70;;
12124;SDS011;6126;57.908;16.490;2023-04-24T05:59:06;14.75;;;10.15;;
12124;SDS011;6126;57.908;16.490;2023-04-24T06:01:33;15.38;;;10.52;;
12124;SDS011;6126;57.908;16.490;2023-04-24T06:03:59;14.63;;;11.18;;
12124;SDS011;6126;57.908;16.490;2023-04-24T06:06:25;14.60;;;10.63;;
12124;SDS011;6126;57.908;16.490;2023-04-24T06:08:52;13.05;;;9.93;;
12124;SDS011;6126;57.908;16.490;2023-04-24T06:11:18;14.80;;;10.23;;
12124;SDS011;6126;57.908;16.490;2023-04-24T06:13:44;15.80;;;10.85;;
12124;SDS011;6126;57.908;16.490;2023-04-24T06:16:10;14.80;;;10.65;;
12124;SDS011;6126;57.908;16.490;2023-04-24T06:18:36;14.85;;;11.10;;
12124;SDS011;6126;57.908;16.490;2023-04-24T06:21:02;16.40;;;10.95;;
12124;SDS011;6126;57.908;16.490;2023-04-24T06:23:29;15.88;;;10.90;;
12124;SDS011;6126;57.908;16.490;2023-04-24T06:25:57;14.35;;;10.48;;
12124;SDS011;6126;57.908;16.490;2023-04-24T06:28:23;15.95;;;10.35;;
12124;SDS011;6126;57.908;16.490;2023-04-24T06:30:50;13.45;;;10.13;;
12124;SDS011;6126;57.908;16.490;2023-04-24T06:33:16;15.93;;;10.40;;
12124;SDS011;6126;57.908;16.490;2023-04-24T06:35:42;15.15;;;10.57;;
12124;SDS011;6126;57.908;16.490;2023-04-24T06:38:08;15.10;;;11.32;;
12124;SDS011;6126;57.908;16.490;2023-04-24T06:40:33;12.75;;;9.50;;
12124;SDS011;6126;57.908;16.490;2023-04-24T06:42:59;16.05;;;11.63;;
12124;SDS011;6126;57.908;16.490;2023-04-24T06:45:27;13.10;;;9.82;;
12124;SDS011;6126;57.908;16.490;2023-04-24T06:47:55;14.48;;;10.30;;
12124;SDS011;6126;57.908;16.490;2023-04-24T06:50:21;17.98;;;11.68;;
12124;SDS011;6126;57.908;16.490;2023-04-24T06:52:47;14.63;;;10.70;;
12124;SDS011;6126;57.908;16.490;2023-04-24T06:55:13;15.77;;;12.10;;
12124;SDS011;6126;57.908;16.490;2023-04-24T06:57:41;17.05;;;11.50;;
12124;SDS011;6126;57.908;16.490;2023-04-24T07:00:07;16.67;;;11.52;;
12124;SDS011;6126;57.908;16.490;2023-04-24T07:02:34;15.52;;;11.70;;
12124;SDS011;6126;57.908;16.490;2023-04-24T07:05:00;13.93;;;10.80;;
12124;SDS011;6126;57.908;16.490;2023-04-24T07:07:26;16.10;;;11.27;;
12124;SDS011;6126;57.908;16.490;2023-04-24T07:09:52;15.85;;;11.93;;
12124;SDS011;6126;57.908;16.490;2023-04-24T07:12:19;16.55;;;12.02;;
12124;SDS011;6126;57.908;16.490;2023-04-24T07:14:46;15.98;;;11.13;;
12124;SDS011;6126;57.908;16.490;2023-04-24T07:17:13;15.60;;;11.43;;
12124;SDS011;6126;57.908;16.490;2023-04-24T07:19:39;13.20;;;10.55;;
12124;SDS011;6126;57.908;16.490;2023-04-24T07:22:05;17.58;;;11.85;;
12124;SDS011;6126;57.908;16.490;2023-04-24T07:24:31;13.68;;;10.82;;
12124;SDS011;6126;57.908;16.490;2023-04-24T07:26:57;13.77;;;10.45;;
12124;SDS011;6126;57.908;16.490;2023-04-24T07:29:24;16.55;;;11.30;;
12124;SDS011;6126;57.908;16.490;2023-04-24T07:31:50;14.10;;;11.00;;
12124;SDS011;6126;57.908;16.490;2023-04-24T07:34:16;16.15;;;11.25;;
12124;SDS011;6126;57.908;16.490;2023-04-24T07:36:42;17.50;;;11.40;;
12124;SDS011;6126;57.908;16.490;2023-04-24T07:39:08;16.73;;;11.57;;
12124;SDS011;6126;57.908;16.490;2023-04-24T07:41:34;14.35;;;10.52;;
12124;SDS011;6126;57.908;16.490;2023-04-24T07:43:59;16.50;;;10.50;;
12124;SDS011;6126;57.908;16.490;2023-04-24T07:46:25;14.95;;;10.25;;
12124;SDS011;6126;57.908;16.490;2023-04-24T07:48:54;18.85;;;10.98;;
12124;SDS011;6126;57.908;16.490;2023-04-24T07:51:21;14.43;;;10.90;;
12124;SDS011;6126;57.908;16.490;2023-04-24T07:53:47;16.58;;;11.48;;
12124;SDS011;6126;57.908;16.490;2023-04-24T07:56:13;16.55;;;11.02;;
12124;SDS011;6126;57.908;16.490;2023-04-24T07:58:39;15.13;;;11.40;;
12124;SDS011;6126;57.908;16.490;2023-04-24T08:01:05;14.98;;;11.25;;
12124;SDS011;6126;57.908;16.490;2023-04-24T08:03:31;18.98;;;12.30;;
12124;SDS011;6126;57.908;16.490;2023-04-24T08:05:57;15.57;;;11.00;;
12124;SDS011;6126;57.908;16.490;2023-04-24T08:08:23;16.38;;;12.23;;
12124;SDS011;6126;57.908;16.490;2023-04-24T08:10:50;17.85;;;11.65;;
12124;SDS011;6126;57.908;16.490;2023-04-24T08:13:16;19.75;;;12.38;;
12124;SDS011;6126;57.908;16.490;2023-04-24T08:15:41;16.75;;;11.10;;
12124;SDS011;6126;57.908;16.490;2023-04-24T08:18:07;16.40;;;11.57;;
12124;SDS011;6126;57.908;16.490;2023-04-24T08:20:34;15.32;;;11.48;;
12124;SDS011;6126;57.908;16.490;2023-04-24T08:23:00;20.52;;;12.57;;
12124;SDS011;6126;57.908;16.490;2023-04-24T08:25:26;15.98;;;11.13;;
12124;SDS011;6126;57.908;16.490;2023-04-24T08:27:52;16.00;;;11.85;;
12124;SDS011;6126;57.908;16.490;2023-04-24T08:30:17;19.45;;;13.45;;
12124;SDS011;6126;57.908;16.490;2023-04-24T08:32:43;17.52;;;12.32;;
12124;SDS011;6126;57.908;16.490;2023-04-24T08:35:09;14.98;;;10.75;;
12124;SDS011;6126;57.908;16.490;2023-04-24T08:37:35;16.67;;;11.68;;
12124;SDS011;6126;57.908;16.490;2023-04-24T08:40:06;19.40;;;12.35;;
12124;SDS011;6126;57.908;16.490;2023-04-24T08:42:41;17.77;;;11.95;;
12124;SDS011;6126;57.908;16.490;2023-04-24T08:45:09;18.17;;;12.13;;
12124;SDS011;6126;57.908;16.490;2023-04-24T08:47:38;15.82;;;11.55;;
12124;SDS011;6126;57.908;16.490;2023-04-24T08:50:06;18.25;;;12.73;;
12124;SDS011;6126;57.908;16.490;2023-04-24T08:52:33;15.30;;;10.80;;
12124;SDS011;6126;57.908;16.490;2023-04-24T08:55:00;17.58;;;11.02;;
12124;SDS011;6126;57.908;16.490;2023-04-24T08:57:27;16.58;;;12.55;;
12124;SDS011;6126;57.908;16.490;2023-04-24T08:59:54;15.05;;;11.77;;
12124;SDS011;6126;57.908;16.490;2023-04-24T09:02:23;20.40;;;13.82;;
12124;SDS011;6126;57.908;16.490;2023-04-24T09:04:50;18.08;;;13.30;;
12124;SDS011;6126;57.908;16.490;2023-04-24T09:07:18;16.15;;;12.50;;
12124;SDS011;6126;57.908;16.490;2023-04-24T09:09:50;18.67;;;12.02;;
12124;SDS011;6126;57.908;16.490;2023-04-24T09:12:17;16.58;;;12.15;;
12124;SDS011;6126;57.908;16.490;2023-04-24T09:14:44;19.40;;;12.60;;
12124;SDS011;6126;57.908;16.490;2023-04-24T09:17:11;17.70;;;12.25;;
12124;SDS011;6126;57.908;16.490;2023-04-24T09:19:37;15.77;;;12.05;;
12124;SDS011;6126;57.908;16.490;2023-04-24T09:22:06;18.05;;;12.75;;
12124;SDS011;6126;57.908;16.490;2023-04-24T09:24:34;19.73;;;14.40;;
12124;SDS011;6126;57.908;16.490;2023-04-24T09:27:00;17.42;;;12.13;;
12124;SDS011;6126;57.908;16.490;2023-04-24T09:29:27;18.05;;;12.10;;
12124;SDS011;6126;57.908;16.490;2023-04-24T09:31:53;18.33;;;13.48;;
12124;SDS011;6126;57.908;16.490;2023-04-24T09:34:21;17.88;;;11.60;;
12124;SDS011;6126;57.908;16.490;2023-04-24T09:36:49;16.05;;;12.10;;
12124;SDS011;6126;57.908;16.490;2023-04-24T09:39:16;18.58;;;13.18;;
12124;SDS011;6126;57.908;16.490;2023-04-24T09:41:51;16.90;;;11.95;;
12124;SDS011;6126;57.908;16.490;2023-04-24T09:44:26;17.73;;;12.85;;
12124;SDS011;6126;57.908;16.490;2023-04-24T09:46:54;17.80;;;12.70;;
12124;SDS011;6126;57.908;16.490;2023-04-24T09:49:28;16.98;;;12.75;;
12124;SDS011;6126;57.908;16.490;2023-04-24T09:52:10;15.98;;;11.85;;
12124;SDS011;6126;57.908;16.490;2023-04-24T09:54:37;15.38;;;11.18;;
12124;SDS011;6126;57.908;16.490;2023-04-24T09:57:04;15.13;;;11.60;;
12124;SDS011;6126;57.908;16.490;2023-04-24T09:59:34;16.75;;;11.75;;
12124;SDS011;6126;57.908;16.490;2023-04-24T10:02:00;14.40;;;11.02;;
12124;SDS011;6126;57.908;16.490;2023-04-24T10:04:27;16.08;;;11.60;;
12124;SDS011;6126;57.908;16.490;2023-04-24T10:06:57;15.80;;;10.75;;
12124;SDS011;6126;57.908;16.490;2023-04-24T10:09:24;14.38;;;11.77;;
12124;SDS011;6126;57.908;16.490;2023-04-24T10:11:52;14.02;;;10.38;;
12124;SDS011;6126;57.908;16.490;2023-04-24T10:14:22;14.18;;;10.80;;
12124;SDS011;6126;57.908;16.490;2023-04-24T10:16:50;13.43;;;10.35;;
12124;SDS011;6126;57.908;16.490;2023-04-24T10:19:20;13.38;;;11.00;;
12124;SDS011;6126;57.908;16.490;2023-04-24T10:21:46;13.20;;;10.13;;
12124;SDS011;6126;57.908;16.490;2023-04-24T10:24:12;13.90;;;10.07;;
12124;SDS011;6126;57.908;16.490;2023-04-24T10:26:41;14.60;;;11.75;;
12124;SDS011;6126;57.908;16.490;2023-04-24T10:29:08;13.73;;;10.77;;
12124;SDS011;6126;57.908;16.490;2023-04-24T10:31:37;14.10;;;11.18;;
12124;SDS011;6126;57.908;16.490;2023-04-24T10:34:05;14.27;;;10.52;;
12124;SDS011;6126;57.908;16.490;2023-04-24T10:36:33;15.57;;;10.35;;
12124;SDS011;6126;57.908;16.490;2023-04-24T10:39:01;14.00;;;10.10;;
12124;SDS011;6126;57.908;16.490;2023-04-24T10:41:31;14.60;;;9.85;;
12124;SDS011;6126;57.908;16.490;2023-04-24T10:44:04;12.70;;;10.10;;
12124;SDS011;6126;57.908;16.490;2023-04-24T10:46:33;12.80;;;10.43;;
12124;SDS011;6126;57.908;16.490;2023-04-24T10:48:59;11.40;;;9.45;;
12124;SDS011;6126;57.908;16.490;2023-04-24T10:51:46;15.50;;;10.50;;
12124;SDS011;6126;57.908;16.490;2023-04-24T10:54:27;12.85;;;9.77;;
12124;SDS011;6126;57.908;16.490;2023-04-24T11:00:10;14.13;;;10.15;;
12124;SDS011;6126;57.908;16.490;2023-04-24T11:02:45;13.02;;;10.55;;
12124;SDS011;6126;57.908;16.490;2023-04-24T11:05:15;16.10;;;11.00;;
12124;SDS011;6126;57.908;16.490;2023-04-24T11:08:28;14.32;;;10.00;;
12124;SDS011;6126;57.908;16.490;2023-04-24T11:13:22;13.57;;;10.27;;
12124;SDS011;6126;57.908;16.490;2023-04-24T11:21:54;20.88;;;10.90;;
12124;SDS011;6126;57.908;16.490;2023-04-24T11:24:48;16.60;;;11.23;;
12124;SDS011;6126;57.908;16.490;2023-04-24T11:27:19;14.85;;;11.15;;
12124;SDS011;6126;57.908;16.490;2023-04-24T11:35:15;15.25;;;10.00;;
12124;SDS011;6126;57.908;16.490;2023-04-24T11:37:50;13.43;;;10.00;;
12124;SDS011;6126;57.908;16.490;2023-04-24T11:40:19;15.88;;;10.90;;
12124;SDS011;6126;57.908;16.490;2023-04-24T11:42:51;14.18;;;10.43;;
12124;SDS011;6126;57.908;16.490;2023-04-24T11:45:24;13.50;;;9.88;;
12124;SDS011;6126;57.908;16.490;2023-04-24T11:47:52;12.00;;;10.02;;
12124;SDS011;6126;57.908;16.490;2023-04-24T11:50:20;15.13;;;9.75;;
12124;SDS011;6126;57.908;16.490;2023-04-24T11:52:50;16.35;;;11.23;;
12124;SDS011;6126;57.908;16.490;2023-04-24T11:57:46;12.82;;;10.73;;
12124;SDS011;6126;57.908;16.490;2023-04-24T12:00:19;13.40;;;9.60;;
12124;SDS011;6126;57.908;16.490;2023-04-24T12:03:02;14.90;;;10.05;;
12124;SDS011;6126;57.908;16.490;2023-04-24T12:05:37;10.60;;;8.38;;
12124;SDS011;6126;57.908;16.490;2023-04-24T12:08:03;11.05;;;8.93;;
12124;SDS011;6126;57.908;16.490;2023-04-24T12:10:30;11.32;;;8.73;;
12124;SDS011;6126;57.908;16.490;2023-04-24T12:12:58;14.00;;;9.07;;
12124;SDS011;6126;57.908;16.490;2023-04-24T12:15:25;10.85;;;8.27;;
12124;SDS011;6126;57.908;16.490;2023-04-24T12:17:52;9.52;;;7.70;;
12124;SDS011;6126;57.908;16.490;2023-04-24T12:20:31;9.13;;;8.18;;
12124;SDS011;6126;57.908;16.490;2023-04-24T12:22:58;11.98;;;8.70;;
12124;SDS011;6126;57.908;16.490;2023-04-24T12:25:26;13.15;;;8.75;;
12124;SDS011;6126;57.908;16.490;2023-04-24T12:30:30;10.15;;;7.90;;
12124;SDS011;6126;57.908;16.490;2023-04-24T12:33:04;11.60;;;8.43;;
12124;SDS011;6126;57.908;16.490;2023-04-24T12:35:31;10.95;;;8.40;;
12124;SDS011;6126;57.908;16.490;2023-04-24T12:38:14;12.38;;;8.23;;
12124;SDS011;6126;57.908;16.490;2023-04-24T12:40:41;10.65;;;8.23;;
12124;SDS011;6126;57.908;16.490;2023-04-24T12:43:17;10.57;;;8.10;;
12124;SDS011;6126;57.908;16.490;2023-04-24T12:45:45;14.63;;;8.50;;
12124;SDS011;6126;57.908;16.490;2023-04-24T12:48:14;10.55;;;8.27;;
12124;SDS011;6126;57.908;16.490;2023-04-24T12:50:40;10.35;;;8.18;;
12124;SDS011;6126;57.908;16.490;2023-04-24T12:53:08;10.82;;;9.10;;
12124;SDS011;6126;57.908;16.490;2023-04-24T12:55:34;12.65;;;8.25;;
12124;SDS011;6126;57.908;16.490;2023-04-24T12:58:00;9.95;;;7.97;;
12124;SDS011;6126;57.908;16.490;2023-04-24T13:00:28;11.15;;;7.90;;
12124;SDS011;6126;57.908;16.490;2023-04-24T13:02:54;12.02;;;8.52;;
12124;SDS011;6126;57.908;16.490;2023-04-24T13:05:20;12.70;;;9.07;;
12124;SDS011;6126;57.908;16.490;2023-04-24T13:07:46;11.02;;;8.88;;
12124;SDS011;6126;57.908;16.490;2023-04-24T13:10:12;9.77;;;7.93;;
12124;SDS011;6126;57.908;16.490;2023-04-24T13:12:38;9.65;;;7.70;;
12124;SDS011;6126;57.908;16.490;2023-04-24T13:15:05;12.48;;;8.30;;
12124;SDS011;6126;57.908;16.490;2023-04-24T13:17:32;9.93;;;7.45;;
12124;SDS011;6126;57.908;16.490;2023-04-24T13:19:58;11.27;;;8.13;;
12124;SDS011;6126;57.908;16.490;2023-04-24T13:22:24;11.75;;;7.85;;
12124;SDS011;6126;57.908;16.490;2023-04-24T13:24:50;10.45;;;8.07;;
12124;SDS011;6126;57.908;16.490;2023-04-24T13:27:16;9.45;;;6.88;;
12124;SDS011;6126;57.908;16.490;2023-04-24T13:29:42;8.48;;;6.63;;
12124;SDS011;6126;57.908;16.490;2023-04-24T13:32:09;7.82;;;6.15;;
12124;SDS011;6126;57.908;16.490;2023-04-24T13:34:35;8.82;;;7.00;;
12124;SDS011;6126;57.908;16.490;2023-04-24T13:37:01;11.10;;;7.40;;
12124;SDS011;6126;57.908;16.490;2023-04-24T13:39:31;7.68;;;6.22;;
12124;SDS011;6126;57.908;16.490;2023-04-24T13:41:57;9.50;;;6.80;;
12124;SDS011;6126;57.908;16.490;2023-04-24T13:44:24;8.65;;;6.60;;
12124;SDS011;6126;57.908;16.490;2023-04-24T13:46:51;8.75;;;6.60;;
12124;SDS011;6126;57.908;16.490;2023-04-24T13:49:21;7.38;;;6.40;;
12124;SDS011;6126;57.908;16.490;2023-04-24T13:51:50;7.80;;;6.72;;
12124;SDS011;6126;57.908;16.490;2023-04-24T13:54:17;9.23;;;6.60;;
12124;SDS011;6126;57.908;16.490;2023-04-24T13:56:43;8.05;;;7.03;;
12124;SDS011;6126;57.908;16.490;2023-04-24T13:59:09;10.50;;;6.85;;
12124;SDS011;6126;57.908;16.490;2023-04-24T14:01:38;8.50;;;6.93;;
12124;SDS011;6126;57.908;16.490;2023-04-24T14:04:04;9.13;;;6.65;;
12124;SDS011;6126;57.908;16.490;2023-04-24T14:06:30;8.27;;;6.53;;
12124;SDS011;6126;57.908;16.490;2023-04-24T14:08:56;9.25;;;6.57;;
12124;SDS011;6126;57.908;16.490;2023-04-24T14:11:22;9.85;;;7.13;;
12124;SDS011;6126;57.908;16.490;2023-04-24T14:13:48;10.15;;;7.97;;
12124;SDS011;6126;57.908;16.490;2023-04-24T14:16:14;9.27;;;7.95;;
12124;SDS011;6126;57.908;16.490;2023-04-24T14:18:40;10.20;;;7.70;;
12124;SDS011;6126;57.908;16.490;2023-04-24T14:21:06;9.90;;;7.53;;
12124;SDS011;6126;57.908;16.490;2023-04-24T14:23:32;12.45;;;10.25;;
12124;SDS011;6126;57.908;16.490;2023-04-24T14:25:59;11.80;;;8.50;;
12124;SDS011;6126;57.908;16.490;2023-04-24T14:28:25;7.90;;;7.03;;
12124;SDS011;6126;57.908;16.490;2023-04-24T14:30:51;9.60;;;7.85;;
12124;SDS011;6126;57.908;16.490;2023-04-24T14:33:18;11.40;;;10.32;;
12124;SDS011;6126;57.908;16.490;2023-04-24T14:35:44;13.65;;;7.85;;
12124;SDS011;6126;57.908;16.490;2023-04-24T14:38:11;10.85;;;7.72;;
12124;SDS011;6126;57.908;16.490;2023-04-24T14:40:37;9.43;;;6.93;;
12124;SDS011;6126;57.908;16.490;2023-04-24T14:43:03;8.48;;;6.95;;
12124;SDS011;6126;57.908;16.490;2023-04-24T14:45:29;10.13;;;7.95;;
12124;SDS011;6126;57.908;16.490;2023-04-24T14:47:55;8.90;;;6.95;;
12124;SDS011;6126;57.908;16.490;2023-04-24T14:50:21;11.55;;;7.43;;
12124;SDS011;6126;57.908;16.490;2023-04-24T14:52:47;10.75;;;6.80;;
12124;SDS011;6126;57.908;16.490;2023-04-24T14:55:13;9.75;;;6.65;;